createdAt,value
2022-10-19T00:01:53.539Z,2.45
2022-10-19T00:04:20.027Z,2.38
2022-10-19T00:06:46.473Z,2.30
2022-10-19T00:09:15.128Z,2.08
2022-10-19T00:11:43.569Z,2.30
2022-10-19T00:14:15.665Z,1.95
2022-10-19T00:16:43.702Z,2.05
2022-10-19T00:19:14.026Z,2.00
2022-10-19T00:21:40.844Z,2.38
2022-10-19T00:24:07.788Z,2.25
2022-10-19T00:26:34.920Z,1.98
2022-10-19T00:29:01.768Z,2.40
2022-10-19T00:31:29.616Z,2.10
2022-10-19T00:33:57.102Z,1.95
2022-10-19T00:36:26.416Z,1.75
2022-10-19T00:38:54.405Z,2.13
2022-10-19T00:41:22.950Z,2.22
2022-10-19T00:43:55.109Z,1.90
2022-10-19T00:46:22.127Z,1.75
2022-10-19T00:48:52.514Z,2.50
2022-10-19T00:51:18.985Z,2.60
2022-10-19T00:53:45.478Z,1.80
2022-10-19T00:56:15.214Z,2.13
2022-10-19T00:58:43.560Z,1.67
2022-10-19T01:01:14.268Z,2.22
2022-10-19T01:03:40.901Z,1.80
2022-10-19T01:06:09.743Z,1.80
2022-10-19T01:08:36.166Z,2.35
2022-10-19T01:11:18.102Z,2.17
2022-10-19T01:13:58.404Z,1.75
2022-10-19T01:16:34.148Z,2.70
2022-10-19T01:19:21.296Z,2.45
2022-10-19T01:21:58.419Z,2.25
2022-10-19T01:24:51.944Z,2.33
2022-10-19T01:27:37.606Z,2.13
2022-10-19T01:30:16.108Z,2.28
2022-10-19T01:32:52.693Z,2.42
2022-10-19T01:35:26.675Z,1.65
2022-10-19T01:38:04.888Z,1.88
2022-10-19T01:40:41.169Z,1.70
2022-10-19T01:43:13.535Z,2.83
2022-10-19T01:45:47.300Z,2.00
2022-10-19T01:48:17.374Z,2.22
2022-10-19T01:50:50.506Z,2.30
2022-10-19T01:53:19.702Z,2.40
2022-10-19T01:55:51.013Z,2.03
2022-10-19T01:58:21.588Z,1.90
2022-10-19T02:00:52.851Z,2.38
2022-10-19T02:03:20.320Z,2.03
2022-10-19T02:05:48.390Z,1.90
2022-10-19T02:08:20.579Z,1.90
2022-10-19T02:10:47.809Z,1.55
2022-10-19T02:13:16.191Z,1.80
2022-10-19T02:15:46.534Z,1.70
2022-10-19T02:18:17.817Z,1.48
2022-10-19T02:20:44.576Z,1.63
2022-10-19T02:23:13.410Z,1.70
2022-10-19T02:25:39.943Z,1.40
2022-10-19T02:28:06.749Z,1.27
2022-10-19T02:30:33.529Z,1.30
2022-10-19T02:33:00.197Z,1.23
2022-10-19T02:35:28.154Z,1.60
2022-10-19T02:37:57.797Z,1.38
2022-10-19T02:40:25.159Z,1.27
2022-10-19T02:42:56.547Z,1.13
2022-10-19T02:45:28.040Z,1.38
2022-10-19T02:47:59.871Z,1.50
2022-10-19T02:50:28.341Z,1.40
2022-10-19T02:52:54.806Z,1.92
2022-10-19T02:55:21.218Z,2.47
2022-10-19T02:57:47.645Z,1.40
2022-10-19T03:00:14.233Z,1.70
2022-10-19T03:02:40.676Z,1.60
2022-10-19T03:05:08.458Z,1.13
2022-10-19T03:07:36.726Z,1.30
2022-10-19T03:10:04.044Z,1.38
2022-10-19T03:12:30.489Z,1.48
2022-10-19T03:14:56.932Z,1.38
2022-10-19T03:17:23.472Z,1.30
2022-10-19T03:19:49.892Z,1.42
2022-10-19T03:22:16.426Z,1.20
2022-10-19T03:24:44.237Z,0.90
2022-10-19T03:27:10.744Z,1.98
2022-10-19T03:29:37.198Z,1.05
2022-10-19T03:32:04.904Z,1.10
2022-10-19T03:34:31.332Z,1.20
2022-10-19T03:36:57.757Z,1.45
2022-10-19T03:39:24.460Z,1.33
2022-10-19T03:41:52.246Z,0.93
2022-10-19T03:44:18.656Z,1.05
2022-10-19T03:46:45.077Z,0.75
2022-10-19T03:49:11.828Z,1.00
2022-10-19T03:51:38.410Z,0.90
2022-10-19T03:54:06.860Z,0.60
2022-10-19T03:56:34.538Z,0.95
2022-10-19T03:59:04.255Z,0.70
2022-10-19T04:01:33.093Z,0.77
2022-10-19T04:04:01.477Z,0.82
2022-10-19T04:06:30.131Z,1.10
2022-10-19T04:08:57.520Z,0.80
2022-10-19T04:11:25.957Z,0.90
2022-10-19T04:13:53.581Z,0.80
2022-10-19T04:16:23.451Z,0.70
2022-10-19T04:18:50.378Z,0.80
2022-10-19T04:21:21.855Z,1.40
2022-10-19T04:23:48.468Z,1.42
2022-10-19T04:26:15.067Z,0.90
2022-10-19T04:28:41.540Z,1.98
2022-10-19T04:31:08.408Z,0.93
2022-10-19T04:33:36.305Z,0.65
2022-10-19T04:36:06.451Z,1.17
2022-10-19T04:38:33.495Z,0.68
2022-10-19T04:41:01.610Z,0.93
2022-10-19T04:46:55.677Z,0.98
2022-10-19T04:49:23.469Z,0.77
2022-10-19T04:51:49.931Z,0.73
2022-10-19T04:54:16.400Z,1.00
2022-10-19T04:56:42.807Z,0.77
2022-10-19T04:59:10.131Z,1.10
2022-10-19T05:01:36.588Z,0.88
2022-10-19T05:04:03.410Z,0.80
2022-10-19T05:06:31.680Z,1.45
2022-10-19T05:08:58.782Z,0.85
2022-10-19T05:11:26.045Z,0.82
2022-10-19T05:13:52.578Z,1.20
2022-10-19T05:16:22.105Z,1.25
2022-10-19T05:18:49.403Z,1.15
2022-10-19T05:21:17.044Z,0.93
2022-10-19T05:23:45.172Z,1.25
2022-10-19T05:26:14.598Z,1.58
2022-10-19T05:28:41.223Z,1.10
2022-10-19T05:31:09.807Z,1.25
2022-10-19T05:33:37.283Z,1.33
2022-10-19T05:36:12.476Z,0.88
2022-10-19T05:38:39.027Z,1.48
2022-10-19T05:41:06.994Z,1.10
2022-10-19T05:43:33.460Z,1.13
2022-10-19T05:46:03.554Z,0.70
2022-10-19T05:48:29.956Z,1.10
2022-10-19T05:50:56.367Z,1.30
2022-10-19T05:53:22.817Z,1.65
2022-10-19T05:55:49.281Z,0.82
2022-10-19T05:58:17.017Z,1.52
2022-10-19T06:00:43.466Z,1.10
2022-10-19T06:03:09.865Z,0.90
2022-10-19T06:05:36.365Z,2.03
2022-10-19T06:08:02.906Z,1.67
2022-10-19T06:10:29.457Z,2.03
2022-10-19T06:12:55.865Z,1.58
2022-10-19T06:15:23.784Z,1.25
2022-10-19T06:17:50.238Z,0.90
2022-10-19T06:20:16.693Z,0.98
2022-10-19T06:22:43.133Z,1.15
2022-10-19T06:25:09.836Z,1.00
2022-10-19T06:27:36.724Z,1.27
2022-10-19T06:30:04.144Z,1.65
2022-10-19T06:32:31.906Z,1.40
2022-10-19T06:34:58.301Z,0.80
2022-10-19T06:37:24.692Z,1.13
2022-10-19T06:39:51.216Z,1.15
2022-10-19T06:42:17.648Z,1.67
2022-10-19T06:44:44.103Z,1.10
2022-10-19T06:47:10.565Z,0.90
2022-10-19T06:49:38.332Z,0.93
2022-10-19T06:52:05.063Z,1.10
2022-10-19T06:54:31.619Z,1.63
2022-10-19T06:56:58.052Z,1.10
2022-10-19T06:59:24.482Z,0.88
2022-10-19T07:01:50.983Z,0.90
2022-10-19T07:04:17.493Z,0.98
2022-10-19T07:06:45.318Z,1.00
2022-10-19T07:09:11.750Z,1.60
2022-10-19T07:11:41.295Z,1.30
2022-10-19T07:14:12.021Z,0.95
2022-10-19T07:16:38.534Z,1.20
2022-10-19T07:19:04.962Z,1.10
2022-10-19T07:21:31.411Z,1.00
2022-10-19T07:23:59.194Z,1.15
2022-10-19T07:26:26.915Z,1.17
2022-10-19T07:28:56.066Z,1.10
2022-10-19T07:31:24.131Z,1.27
2022-10-19T07:33:52.769Z,1.20
2022-10-19T07:36:19.336Z,0.90
2022-10-19T07:38:45.790Z,0.70
2022-10-19T07:41:15.357Z,1.00
2022-10-19T07:43:43.607Z,0.88
2022-10-19T07:46:12.409Z,1.10
2022-10-19T07:48:38.934Z,0.90
2022-10-19T07:51:07.185Z,1.20
2022-10-19T07:53:33.827Z,1.73
2022-10-19T07:56:03.727Z,0.90
2022-10-19T07:58:31.590Z,1.10
2022-10-19T08:01:00.412Z,1.15
2022-10-19T08:06:15.330Z,0.90
2022-10-19T08:08:42.396Z,0.77
2022-10-19T08:11:10.589Z,0.80
2022-10-19T08:13:39.144Z,0.80
2022-10-19T08:16:06.861Z,1.13
2022-10-19T08:21:02.103Z,0.60
2022-10-19T08:23:28.526Z,0.93
2022-10-19T08:26:00.026Z,1.05
2022-10-19T08:28:26.632Z,1.65
2022-10-19T08:30:54.423Z,0.70
2022-10-19T08:33:20.841Z,0.80
2022-10-19T08:35:47.249Z,0.90
2022-10-19T08:38:13.754Z,0.90
2022-10-19T08:40:40.238Z,1.27
2022-10-19T08:43:14.187Z,0.88
2022-10-19T08:45:43.223Z,0.95
2022-10-19T08:48:25.570Z,0.82
2022-10-19T08:50:53.115Z,1.85
2022-10-19T08:53:25.830Z,0.63
2022-10-19T08:56:07.838Z,0.80
2022-10-19T08:58:48.840Z,1.08
2022-10-19T09:01:25.883Z,0.93
2022-10-19T09:03:59.064Z,1.20
2022-10-19T09:06:31.824Z,1.00
2022-10-19T09:08:59.075Z,1.08
2022-10-19T09:11:30.240Z,1.40
2022-10-19T09:14:06.274Z,1.48
2022-10-19T09:16:33.492Z,1.02
2022-10-19T09:19:01.420Z,1.80
2022-10-19T09:21:42.651Z,1.52
2022-10-19T09:24:26.682Z,1.02
2022-10-19T09:30:22.970Z,0.70
2022-10-19T09:32:53.683Z,0.82
2022-10-19T09:35:28.156Z,1.25
2022-10-19T09:37:55.612Z,0.80
2022-10-19T09:40:24.627Z,1.63
2022-10-19T09:42:51.329Z,0.73
2022-10-19T09:45:24.990Z,1.02
2022-10-19T09:47:53.117Z,1.40
2022-10-19T09:50:22.722Z,1.60
2022-10-19T09:52:52.051Z,0.80
2022-10-19T09:55:29.162Z,0.85
2022-10-19T09:58:03.013Z,2.25
2022-10-19T10:00:37.254Z,1.08
2022-10-19T10:03:04.699Z,1.73
2022-10-19T10:05:34.488Z,0.82
2022-10-19T10:08:01.446Z,1.10
2022-10-19T10:10:30.708Z,1.00
2022-10-19T10:12:58.418Z,1.55
2022-10-19T10:15:28.269Z,0.90
2022-10-19T10:17:56.760Z,0.90
2022-10-19T10:20:26.287Z,0.80
2022-10-19T10:22:57.087Z,1.27
2022-10-19T10:25:30.054Z,0.95
2022-10-19T10:27:59.762Z,1.42
2022-10-19T10:30:29.165Z,0.60
2022-10-19T10:33:04.611Z,1.55
2022-10-19T10:35:47.738Z,0.93
2022-10-19T10:38:19.795Z,0.55
2022-10-19T10:40:51.061Z,0.98
2022-10-19T10:43:20.772Z,1.48
2022-10-19T10:45:49.621Z,1.02
2022-10-19T10:48:28.095Z,0.88
2022-10-19T10:50:55.068Z,0.70
2022-10-19T10:53:41.836Z,0.60
2022-10-19T10:56:22.373Z,1.10
2022-10-19T10:58:53.668Z,0.75
2022-10-19T11:01:22.968Z,0.70
2022-10-19T11:03:55.589Z,0.60
2022-10-19T11:06:25.420Z,0.90
2022-10-19T11:09:03.016Z,0.80
2022-10-19T11:11:35.083Z,0.95
2022-10-19T11:14:22.035Z,0.90
2022-10-19T11:16:51.932Z,1.00
2022-10-19T11:19:22.017Z,0.95
2022-10-19T11:21:55.856Z,0.70
2022-10-19T11:24:35.754Z,0.70
2022-10-19T11:27:14.574Z,1.35
2022-10-19T11:29:57.315Z,0.60
2022-10-19T11:32:32.789Z,0.70
2022-10-19T11:35:14.970Z,1.02
2022-10-19T11:38:17.385Z,0.60
2022-10-19T11:40:59.680Z,0.70
2022-10-19T11:43:38.029Z,0.65
2022-10-19T11:46:15.628Z,0.63
2022-10-19T11:49:00.432Z,0.40
2022-10-19T11:51:35.459Z,0.95
2022-10-19T11:54:16.647Z,0.40
2022-10-19T11:57:09.375Z,0.40
2022-10-19T11:59:51.226Z,0.38
2022-10-19T12:02:42.202Z,0.88
2022-10-19T12:05:12.981Z,0.50
2022-10-19T12:07:51.230Z,0.43
2022-10-19T12:10:26.030Z,0.68
2022-10-19T12:12:58.138Z,0.32
2022-10-19T12:15:30.164Z,0.52
2022-10-19T12:18:02.383Z,0.50
2022-10-19T12:20:35.024Z,0.70
2022-10-19T12:23:16.293Z,0.70
2022-10-19T12:25:45.218Z,0.50
2022-10-19T12:28:22.268Z,0.60
2022-10-19T12:30:49.417Z,0.52
2022-10-19T12:33:21.926Z,0.43
2022-10-19T12:35:59.113Z,0.60
2022-10-19T12:38:37.829Z,0.40
2022-10-19T12:41:18.357Z,0.82
2022-10-19T12:43:59.228Z,0.50
2022-10-19T12:46:36.739Z,0.73
2022-10-19T12:49:34.822Z,0.80
2022-10-19T12:52:02.049Z,0.60
2022-10-19T12:54:31.565Z,0.40
2022-10-19T12:57:00.850Z,0.65
2022-10-19T12:59:30.907Z,0.68
2022-10-19T13:01:58.594Z,1.00
2022-10-19T13:04:27.680Z,0.90
2022-10-19T13:07:01.349Z,0.80
2022-10-19T13:09:31.890Z,0.75
2022-10-19T13:12:42.898Z,0.52
2022-10-19T13:15:56.122Z,0.70
2022-10-19T13:18:59.477Z,1.42
2022-10-19T13:21:47.390Z,0.85
2022-10-19T13:24:27.133Z,0.50
2022-10-19T13:27:27.970Z,0.55
2022-10-19T13:29:55.471Z,0.25
2022-10-19T13:32:37.191Z,0.40
2022-10-19T13:35:29.209Z,0.50
2022-10-19T13:38:11.541Z,0.50
2022-10-19T13:40:55.493Z,0.50
2022-10-19T13:43:25.480Z,0.30
2022-10-19T13:45:54.606Z,0.93
2022-10-19T13:48:27.922Z,0.40
2022-10-19T13:51:03.065Z,0.40
2022-10-19T13:53:43.578Z,0.40
2022-10-19T13:56:45.577Z,0.50
2022-10-19T13:59:37.102Z,0.70
2022-10-19T14:02:46.033Z,0.50
2022-10-19T14:05:32.769Z,0.50
2022-10-19T14:08:11.788Z,0.70
2022-10-19T14:13:27.828Z,0.70
2022-10-19T14:15:57.879Z,1.27
2022-10-19T14:18:26.757Z,0.45
2022-10-19T14:20:58.957Z,0.77
2022-10-19T14:23:27.571Z,1.35
2022-10-19T14:25:57.159Z,0.82
2022-10-19T14:28:24.323Z,1.02
2022-10-19T14:30:59.563Z,1.00
2022-10-19T14:33:28.193Z,0.77
2022-10-19T14:35:55.423Z,1.10
2022-10-19T14:38:32.152Z,0.70
2022-10-19T14:40:58.649Z,0.70
2022-10-19T14:43:27.771Z,0.75
2022-10-19T14:46:17.500Z,1.20
2022-10-19T14:48:45.856Z,1.23
2022-10-19T14:51:29.759Z,0.90
2022-10-19T14:54:03.083Z,0.90
2022-10-19T14:56:33.425Z,1.27
2022-10-19T14:59:03.063Z,1.52
2022-10-19T15:01:29.624Z,1.85
2022-10-19T15:03:56.770Z,2.85
2022-10-19T15:06:25.862Z,3.03
2022-10-19T15:08:55.132Z,1.10
2022-10-19T15:11:26.905Z,0.40
2022-10-19T15:14:00.363Z,0.60
2022-10-19T15:19:02.831Z,0.50
2022-10-19T15:21:31.469Z,0.75
2022-10-19T15:24:07.918Z,0.32
2022-10-19T15:26:36.110Z,1.45
2022-10-19T15:29:10.723Z,0.90
2022-10-19T15:31:37.455Z,0.60
2022-10-19T15:34:04.506Z,0.70
2022-10-19T15:36:32.197Z,1.25
2022-10-19T15:39:18.226Z,1.70
2022-10-19T15:41:52.310Z,1.65
2022-10-19T15:44:33.456Z,3.75
2022-10-19T15:47:19.715Z,3.08
2022-10-19T15:49:53.112Z,2.70
2022-10-19T15:52:21.275Z,2.13
2022-10-19T15:54:48.261Z,2.15
2022-10-19T15:57:34.036Z,2.05
2022-10-19T16:00:06.728Z,2.15
2022-10-19T16:02:33.314Z,1.80
2022-10-19T16:05:00.325Z,2.05
2022-10-19T16:07:29.201Z,2.28
2022-10-19T16:09:55.984Z,2.30
2022-10-19T16:12:23.423Z,1.70
2022-10-19T16:14:51.405Z,2.08
2022-10-19T16:17:18.095Z,1.77
2022-10-19T16:19:45.195Z,1.70
2022-10-19T16:22:13.340Z,1.75
2022-10-19T16:24:40.659Z,1.85
2022-10-19T16:27:08.302Z,1.50
2022-10-19T16:29:35.194Z,1.80
2022-10-19T16:32:03.560Z,1.90
2022-10-19T16:34:30.233Z,2.20
2022-10-19T16:36:56.819Z,1.80
2022-10-19T16:39:23.511Z,2.78
2022-10-19T16:41:50.173Z,2.60
2022-10-19T16:44:16.967Z,3.25
2022-10-19T16:46:43.531Z,3.72
2022-10-19T16:49:11.542Z,5.45
2022-10-19T16:51:39.272Z,6.88
2022-10-19T16:54:08.053Z,7.13
2022-10-19T16:56:35.482Z,5.72
2022-10-19T16:59:04.521Z,4.88
2022-10-19T17:01:32.191Z,6.72
2022-10-19T17:03:59.566Z,5.55
2022-10-19T17:06:28.469Z,6.43
2022-10-19T17:11:43.203Z,6.00
2022-10-19T17:14:12.538Z,10.57
2022-10-19T17:16:40.080Z,13.05
2022-10-19T17:19:08.104Z,12.57
2022-10-19T17:21:38.663Z,12.13
2022-10-19T17:24:07.116Z,10.43
2022-10-19T17:26:35.506Z,7.85
2022-10-19T17:29:02.382Z,8.82
2022-10-19T17:31:29.503Z,8.15
2022-10-19T17:33:56.206Z,8.57
2022-10-19T17:36:25.380Z,9.35
2022-10-19T17:38:54.346Z,11.52
2022-10-19T17:41:21.590Z,11.40
2022-10-19T17:43:49.650Z,11.20
2022-10-19T17:46:17.476Z,11.68
2022-10-19T17:48:45.029Z,10.93
2022-10-19T17:51:14.300Z,13.77
2022-10-19T17:53:40.889Z,13.95
2022-10-19T17:56:11.194Z,14.90
2022-10-19T17:58:39.857Z,12.25
2022-10-19T18:01:07.588Z,13.15
2022-10-19T18:03:35.637Z,13.98
2022-10-19T18:06:08.262Z,13.80
2022-10-19T18:08:39.449Z,13.18
2022-10-19T18:11:07.750Z,14.35
2022-10-19T18:16:07.015Z,15.65
2022-10-19T18:18:35.369Z,16.38
2022-10-19T18:21:05.158Z,15.18
2022-10-19T18:23:31.717Z,16.67
2022-10-19T18:26:00.976Z,15.30
2022-10-19T18:28:29.594Z,16.73
2022-10-19T18:31:04.647Z,16.60
2022-10-19T18:33:32.544Z,15.57
2022-10-19T18:35:59.341Z,15.90
2022-10-19T18:38:26.076Z,16.58
2022-10-19T18:40:52.869Z,14.18
2022-10-19T18:43:19.468Z,15.80
2022-10-19T18:45:51.368Z,14.52
2022-10-19T18:48:19.661Z,15.10
2022-10-19T18:50:46.496Z,19.00
2022-10-19T18:53:13.134Z,16.65
2022-10-19T18:55:39.950Z,21.20
2022-10-19T18:58:06.596Z,17.38
2022-10-19T19:00:33.297Z,16.40
2022-10-19T19:02:59.933Z,15.88
2022-10-19T19:05:28.228Z,18.55
2022-10-19T19:07:55.012Z,18.75
2022-10-19T19:10:21.712Z,17.08
2022-10-19T19:12:49.777Z,17.60
2022-10-19T19:15:17.732Z,18.30
2022-10-19T19:17:44.900Z,20.20
2022-10-19T19:20:11.597Z,19.40
2022-10-19T19:22:39.555Z,18.30
2022-10-19T19:25:06.806Z,17.42
2022-10-19T19:27:33.451Z,19.00
2022-10-19T19:30:00.232Z,18.33
2022-10-19T19:32:26.841Z,19.10
2022-10-19T19:34:54.835Z,18.90
2022-10-19T19:37:21.788Z,17.52
2022-10-19T19:39:49.930Z,17.98
2022-10-19T19:42:16.526Z,18.42
2022-10-19T19:44:43.272Z,17.48
2022-10-19T19:47:09.926Z,17.80
2022-10-19T19:49:36.564Z,16.73
2022-10-19T19:52:03.238Z,15.48
2022-10-19T19:54:29.905Z,14.82
2022-10-19T19:56:57.879Z,15.73
2022-10-19T19:59:24.537Z,19.65
2022-10-19T20:01:51.186Z,16.98
2022-10-19T20:04:17.712Z,16.00
2022-10-19T20:06:44.236Z,15.18
2022-10-19T20:09:11.261Z,14.98
2022-10-19T20:11:42.040Z,14.48
2022-10-19T20:14:10.906Z,14.95
2022-10-19T20:16:37.432Z,15.45
2022-10-19T20:19:07.453Z,14.73
2022-10-19T20:21:34.926Z,13.45
2022-10-19T20:24:01.463Z,12.88
2022-10-19T20:26:28.339Z,12.77
2022-10-19T20:28:55.769Z,12.35
2022-10-19T20:31:24.065Z,12.15
2022-10-19T20:33:50.960Z,10.95
2022-10-19T20:36:19.037Z,11.80
2022-10-19T20:38:47.442Z,12.15
2022-10-19T20:41:13.954Z,12.25
2022-10-19T20:43:40.578Z,11.20
2022-10-19T20:46:11.084Z,11.77
2022-10-19T20:48:39.489Z,10.98
2022-10-19T20:51:10.686Z,9.90
2022-10-19T20:53:37.232Z,12.25
2022-10-19T20:56:04.770Z,12.07
2022-10-19T20:58:31.280Z,21.10
2022-10-19T21:01:04.559Z,19.67
2022-10-19T21:03:31.079Z,20.52
2022-10-19T21:06:02.302Z,26.02
2022-10-19T21:08:29.381Z,26.88
2022-10-19T21:10:55.924Z,24.80
2022-10-19T21:13:22.436Z,26.35
2022-10-19T21:15:48.950Z,48.78
2022-10-19T21:18:15.426Z,47.08
2022-10-19T21:20:41.976Z,69.93
2022-10-19T21:23:09.967Z,46.03
2022-10-19T21:25:36.533Z,20.58
2022-10-19T21:28:03.054Z,10.93
2022-10-19T21:30:29.661Z,22.60
2022-10-19T21:32:56.167Z,21.52
2022-10-19T21:35:22.653Z,20.60
2022-10-19T21:37:49.163Z,13.98
2022-10-19T21:40:17.040Z,14.00
2022-10-19T21:42:43.560Z,27.20
2022-10-19T21:45:29.325Z,25.98
2022-10-19T21:47:57.031Z,38.38
2022-10-19T21:50:23.639Z,33.80
2022-10-19T21:52:50.236Z,27.25
2022-10-19T21:55:18.152Z,23.35
2022-10-19T21:57:45.878Z,19.42
2022-10-19T22:00:13.382Z,15.98
2022-10-19T22:02:39.901Z,13.65
2022-10-19T22:05:06.937Z,13.05
2022-10-19T22:07:33.704Z,12.43
2022-10-19T22:10:00.383Z,10.32
2022-10-19T22:12:28.275Z,9.85
2022-10-19T22:14:54.816Z,8.40
2022-10-19T22:17:21.465Z,8.63
2022-10-19T22:19:49.491Z,6.50
2022-10-19T22:22:15.985Z,7.63
2022-10-19T22:24:42.502Z,7.28
2022-10-19T22:27:09.009Z,6.55
2022-10-19T22:29:36.916Z,6.57
2022-10-19T22:32:03.615Z,6.65
2022-10-19T22:34:30.131Z,6.25
2022-10-19T22:36:56.704Z,6.55
2022-10-19T22:39:26.944Z,7.00
2022-10-19T22:41:54.535Z,7.15
2022-10-19T22:44:21.050Z,7.10
2022-10-19T22:46:48.884Z,6.95
2022-10-19T22:49:15.417Z,7.78
2022-10-19T22:51:42.014Z,7.13
2022-10-19T22:54:08.607Z,7.38
2022-10-19T22:56:35.329Z,6.93
2022-10-19T22:59:03.815Z,8.00
2022-10-19T23:01:30.688Z,7.45
2022-10-19T23:03:58.595Z,7.32
2022-10-19T23:06:25.530Z,7.22
2022-10-19T23:08:52.330Z,7.60
2022-10-19T23:11:19.205Z,7.07
2022-10-19T23:13:45.854Z,7.28
2022-10-19T23:16:12.462Z,8.23
2022-10-19T23:18:40.773Z,7.65
2022-10-19T23:21:11.340Z,7.68
2022-10-19T23:23:38.752Z,7.35
2022-10-19T23:26:07.653Z,7.93
2022-10-19T23:28:36.117Z,8.32
2022-10-19T23:31:04.731Z,7.03
2022-10-19T23:33:31.842Z,6.18
2022-10-19T23:36:01.914Z,6.90
2022-10-19T23:38:29.736Z,6.30
2022-10-19T23:40:56.223Z,6.05
2022-10-19T23:43:22.820Z,7.43
2022-10-19T23:45:49.376Z,6.05
2022-10-19T23:48:15.907Z,5.75
2022-10-19T23:50:42.389Z,6.35
2022-10-19T23:53:08.895Z,5.72
2022-10-19T23:55:36.747Z,5.88
2022-10-19T23:58:03.647Z,5.25
